sensor_id;sensor_type;location;lat;lon;timestamp;P1;durP1;ratioP1;P2;durP2;ratioP2
38379;SDS011;38377;47.418;18.882;2022-07-29T00:00:04;5.25;;;3.22;;
38379;SDS011;38377;47.418;18.882;2022-07-29T00:02:31;4.95;;;3.42;;
38379;SDS011;38377;47.418;18.882;2022-07-29T00:04:57;5.05;;;3.15;;
38379;SDS011;38377;47.418;18.882;2022-07-29T00:07:23;4.63;;;2.95;;
38379;SDS011;38377;47.418;18.882;2022-07-29T00:09:49;4.93;;;3.10;;
38379;SDS011;38377;47.418;18.882;2022-07-29T00:12:15;3.03;;;2.80;;
38379;SDS011;38377;47.418;18.882;2022-07-29T00:14:40;6.03;;;3.40;;
38379;SDS011;38377;47.418;18.882;2022-07-29T00:17:06;4.53;;;3.13;;
38379;SDS011;38377;47.418;18.882;2022-07-29T00:19:32;4.85;;;3.55;;
38379;SDS011;38377;47.418;18.882;2022-07-29T00:21:59;3.47;;;3.03;;
38379;SDS011;38377;47.418;18.882;2022-07-29T00:24:25;5.00;;;3.13;;
38379;SDS011;38377;47.418;18.882;2022-07-29T00:26:51;5.80;;;3.55;;
38379;SDS011;38377;47.418;18.882;2022-07-29T00:29:17;4.57;;;3.05;;
38379;SDS011;38377;47.418;18.882;2022-07-29T00:31:42;5.03;;;3.22;;
38379;SDS011;38377;47.418;18.882;2022-07-29T00:34:08;4.07;;;3.10;;
38379;SDS011;38377;47.418;18.882;2022-07-29T00:36:54;5.55;;;3.22;;
38379;SDS011;38377;47.418;18.882;2022-07-29T00:39:20;3.45;;;3.15;;
38379;SDS011;38377;47.418;18.882;2022-07-29T00:41:45;5.13;;;3.33;;
38379;SDS011;38377;47.418;18.882;2022-07-29T00:44:11;10.30;;;3.28;;
38379;SDS011;38377;47.418;18.882;2022-07-29T00:46:37;8.80;;;3.10;;
38379;SDS011;38377;47.418;18.882;2022-07-29T00:49:02;3.53;;;3.22;;
38379;SDS011;38377;47.418;18.882;2022-07-29T00:51:28;3.30;;;3.08;;
38379;SDS011;38377;47.418;18.882;2022-07-29T00:53:55;5.75;;;3.17;;
38379;SDS011;38377;47.418;18.882;2022-07-29T00:56:21;6.13;;;3.47;;
38379;SDS011;38377;47.418;18.882;2022-07-29T00:58:48;3.70;;;3.17;;
38379;SDS011;38377;47.418;18.882;2022-07-29T01:01:15;3.85;;;3.50;;
38379;SDS011;38377;47.418;18.882;2022-07-29T01:03:41;4.68;;;3.17;;
38379;SDS011;38377;47.418;18.882;2022-07-29T01:06:06;5.57;;;3.40;;
38379;SDS011;38377;47.418;18.882;2022-07-29T01:08:32;3.92;;;3.13;;
38379;SDS011;38377;47.418;18.882;2022-07-29T01:10:59;4.18;;;3.10;;
38379;SDS011;38377;47.418;18.882;2022-07-29T01:13:25;5.10;;;3.38;;
38379;SDS011;38377;47.418;18.882;2022-07-29T01:15:56;4.20;;;2.90;;
38379;SDS011;38377;47.418;18.882;2022-07-29T01:18:30;5.63;;;3.60;;
38379;SDS011;38377;47.418;18.882;2022-07-29T01:30:02;4.40;;;3.15;;
38379;SDS011;38377;47.418;18.882;2022-07-29T01:32:29;6.65;;;3.53;;
38379;SDS011;38377;47.418;18.882;2022-07-29T01:37:54;3.80;;;3.50;;
38379;SDS011;38377;47.418;18.882;2022-07-29T01:40:48;4.60;;;3.03;;
38379;SDS011;38377;47.418;18.882;2022-07-29T01:43:18;4.15;;;3.03;;
38379;SDS011;38377;47.418;18.882;2022-07-29T01:51:08;6.53;;;3.60;;
38379;SDS011;38377;47.418;18.882;2022-07-29T01:56:29;5.13;;;3.25;;
38379;SDS011;38377;47.418;18.882;2022-07-29T01:58:58;4.05;;;3.00;;
38379;SDS011;38377;47.418;18.882;2022-07-29T02:01:25;3.63;;;3.30;;
38379;SDS011;38377;47.418;18.882;2022-07-29T02:03:52;4.28;;;3.63;;
38379;SDS011;38377;47.418;18.882;2022-07-29T02:06:21;3.60;;;3.30;;
38379;SDS011;38377;47.418;18.882;2022-07-29T02:08:48;4.43;;;3.45;;
38379;SDS011;38377;47.418;18.882;2022-07-29T02:11:16;3.50;;;3.20;;
38379;SDS011;38377;47.418;18.882;2022-07-29T02:13:42;3.63;;;3.20;;
38379;SDS011;38377;47.418;18.882;2022-07-29T02:16:09;5.47;;;3.67;;
38379;SDS011;38377;47.418;18.882;2022-07-29T02:18:37;5.05;;;3.90;;
38379;SDS011;38377;47.418;18.882;2022-07-29T02:21:05;4.47;;;3.60;;
38379;SDS011;38377;47.418;18.882;2022-07-29T02:23:33;5.22;;;3.53;;
38379;SDS011;38377;47.418;18.882;2022-07-29T02:26:01;6.13;;;3.97;;
38379;SDS011;38377;47.418;18.882;2022-07-29T02:28:28;4.55;;;3.60;;
38379;SDS011;38377;47.418;18.882;2022-07-29T02:30:58;5.10;;;4.00;;
38379;SDS011;38377;47.418;18.882;2022-07-29T02:33:27;4.70;;;3.75;;
38379;SDS011;38377;47.418;18.882;2022-07-29T02:35:55;4.97;;;4.47;;
38379;SDS011;38377;47.418;18.882;2022-07-29T02:38:23;4.22;;;3.83;;
38379;SDS011;38377;47.418;18.882;2022-07-29T02:41:12;11.43;;;4.22;;
38379;SDS011;38377;47.418;18.882;2022-07-29T02:43:41;5.22;;;3.92;;
38379;SDS011;38377;47.418;18.882;2022-07-29T02:46:11;6.07;;;4.13;;
38379;SDS011;38377;47.418;18.882;2022-07-29T02:51:41;4.30;;;3.90;;
38379;SDS011;38377;47.418;18.882;2022-07-29T02:54:44;4.78;;;4.10;;
38379;SDS011;38377;47.418;18.882;2022-07-29T02:57:14;4.60;;;3.95;;
38379;SDS011;38377;47.418;18.882;2022-07-29T03:00:07;4.60;;;3.78;;
38379;SDS011;38377;47.418;18.882;2022-07-29T03:02:38;5.10;;;4.32;;
38379;SDS011;38377;47.418;18.882;2022-07-29T03:05:08;4.68;;;3.67;;
38379;SDS011;38377;47.418;18.882;2022-07-29T03:07:36;4.88;;;4.15;;
38379;SDS011;38377;47.418;18.882;2022-07-29T03:10:04;4.80;;;4.20;;
38379;SDS011;38377;47.418;18.882;2022-07-29T03:12:32;4.30;;;3.53;;
38379;SDS011;38377;47.418;18.882;2022-07-29T03:14:58;6.15;;;5.00;;
38379;SDS011;38377;47.418;18.882;2022-07-29T03:17:25;5.95;;;3.95;;
38379;SDS011;38377;47.418;18.882;2022-07-29T03:19:51;4.53;;;4.13;;
38379;SDS011;38377;47.418;18.882;2022-07-29T03:22:17;6.68;;;4.03;;
38379;SDS011;38377;47.418;18.882;2022-07-29T03:24:43;4.50;;;4.10;;
38379;SDS011;38377;47.418;18.882;2022-07-29T03:27:09;4.07;;;3.75;;
38379;SDS011;38377;47.418;18.882;2022-07-29T03:29:35;5.57;;;3.95;;
38379;SDS011;38377;47.418;18.882;2022-07-29T03:32:02;4.13;;;3.50;;
38379;SDS011;38377;47.418;18.882;2022-07-29T03:34:29;4.72;;;4.25;;
38379;SDS011;38377;47.418;18.882;2022-07-29T03:36:54;5.28;;;3.72;;
38379;SDS011;38377;47.418;18.882;2022-07-29T03:39:21;6.43;;;4.20;;
38379;SDS011;38377;47.418;18.882;2022-07-29T03:41:52;5.10;;;4.10;;
38379;SDS011;38377;47.418;18.882;2022-07-29T03:44:20;5.35;;;3.83;;
38379;SDS011;38377;47.418;18.882;2022-07-29T03:46:48;4.43;;;3.70;;
38379;SDS011;38377;47.418;18.882;2022-07-29T03:49:16;5.07;;;4.35;;
38379;SDS011;38377;47.418;18.882;2022-07-29T03:51:43;4.38;;;3.97;;
38379;SDS011;38377;47.418;18.882;2022-07-29T03:54:09;4.22;;;3.83;;
38379;SDS011;38377;47.418;18.882;2022-07-29T03:56:42;5.15;;;4.10;;
38379;SDS011;38377;47.418;18.882;2022-07-29T03:59:13;4.47;;;4.07;;
38379;SDS011;38377;47.418;18.882;2022-07-29T04:01:42;4.78;;;3.80;;
38379;SDS011;38377;47.418;18.882;2022-07-29T04:04:08;6.03;;;4.60;;
38379;SDS011;38377;47.418;18.882;2022-07-29T04:06:41;5.05;;;4.60;;
38379;SDS011;38377;47.418;18.882;2022-07-29T04:09:08;6.75;;;4.45;;
38379;SDS011;38377;47.418;18.882;2022-07-29T04:11:35;6.57;;;3.88;;
38379;SDS011;38377;47.418;18.882;2022-07-29T04:14:02;4.40;;;4.00;;
38379;SDS011;38377;47.418;18.882;2022-07-29T04:16:28;8.05;;;4.05;;
38379;SDS011;38377;47.418;18.882;2022-07-29T04:18:54;4.35;;;3.95;;
38379;SDS011;38377;47.418;18.882;2022-07-29T04:21:19;5.60;;;3.72;;
38379;SDS011;38377;47.418;18.882;2022-07-29T04:23:45;5.07;;;3.85;;
38379;SDS011;38377;47.418;18.882;2022-07-29T04:26:14;4.80;;;3.70;;
38379;SDS011;38377;47.418;18.882;2022-07-29T04:28:41;5.03;;;4.35;;
38379;SDS011;38377;47.418;18.882;2022-07-29T04:31:07;4.65;;;4.25;;
38379;SDS011;38377;47.418;18.882;2022-07-29T04:33:34;4.65;;;4.07;;
38379;SDS011;38377;47.418;18.882;2022-07-29T04:35:59;5.95;;;4.03;;
38379;SDS011;38377;47.418;18.882;2022-07-29T04:38:25;5.50;;;3.40;;
38379;SDS011;38377;47.418;18.882;2022-07-29T04:40:51;4.38;;;3.72;;
38379;SDS011;38377;47.418;18.882;2022-07-29T04:43:17;4.78;;;3.97;;
38379;SDS011;38377;47.418;18.882;2022-07-29T04:45:43;7.75;;;4.32;;
38379;SDS011;38377;47.418;18.882;2022-07-29T04:48:08;6.60;;;3.80;;
38379;SDS011;38377;47.418;18.882;2022-07-29T04:50:34;5.85;;;3.58;;
38379;SDS011;38377;47.418;18.882;2022-07-29T04:53:02;6.88;;;4.30;;
38379;SDS011;38377;47.418;18.882;2022-07-29T04:55:28;5.50;;;3.60;;
38379;SDS011;38377;47.418;18.882;2022-07-29T04:57:54;4.18;;;3.70;;
38379;SDS011;38377;47.418;18.882;2022-07-29T05:00:19;6.82;;;3.80;;
38379;SDS011;38377;47.418;18.882;2022-07-29T05:02:45;6.15;;;4.07;;
38379;SDS011;38377;47.418;18.882;2022-07-29T05:05:11;5.13;;;3.47;;
38379;SDS011;38377;47.418;18.882;2022-07-29T05:07:37;4.38;;;3.38;;
38379;SDS011;38377;47.418;18.882;2022-07-29T05:10:03;4.88;;;3.83;;
38379;SDS011;38377;47.418;18.882;2022-07-29T05:12:29;5.70;;;4.00;;
38379;SDS011;38377;47.418;18.882;2022-07-29T05:14:55;4.03;;;3.63;;
38379;SDS011;38377;47.418;18.882;2022-07-29T05:17:20;5.35;;;3.83;;
38379;SDS011;38377;47.418;18.882;2022-07-29T05:19:46;5.18;;;3.67;;
38379;SDS011;38377;47.418;18.882;2022-07-29T05:22:12;6.72;;;4.30;;
38379;SDS011;38377;47.418;18.882;2022-07-29T05:24:37;9.93;;;4.18;;
38379;SDS011;38377;47.418;18.882;2022-07-29T05:27:03;6.18;;;4.35;;
38379;SDS011;38377;47.418;18.882;2022-07-29T05:29:29;5.05;;;4.03;;
38379;SDS011;38377;47.418;18.882;2022-07-29T05:31:55;5.93;;;4.25;;
38379;SDS011;38377;47.418;18.882;2022-07-29T05:34:20;7.00;;;4.72;;
38379;SDS011;38377;47.418;18.882;2022-07-29T05:36:46;5.47;;;4.10;;
38379;SDS011;38377;47.418;18.882;2022-07-29T05:39:11;5.65;;;4.32;;
38379;SDS011;38377;47.418;18.882;2022-07-29T05:41:38;5.50;;;3.90;;
38379;SDS011;38377;47.418;18.882;2022-07-29T05:44:04;6.55;;;4.05;;
38379;SDS011;38377;47.418;18.882;2022-07-29T05:46:29;5.32;;;4.10;;
38379;SDS011;38377;47.418;18.882;2022-07-29T05:48:55;6.03;;;4.57;;
38379;SDS011;38377;47.418;18.882;2022-07-29T05:51:21;5.72;;;4.35;;
38379;SDS011;38377;47.418;18.882;2022-07-29T05:53:47;6.20;;;4.78;;
38379;SDS011;38377;47.418;18.882;2022-07-29T05:56:12;5.78;;;4.53;;
38379;SDS011;38377;47.418;18.882;2022-07-29T05:58:38;6.20;;;4.70;;
38379;SDS011;38377;47.418;18.882;2022-07-29T06:01:04;6.05;;;4.18;;
38379;SDS011;38377;47.418;18.882;2022-07-29T06:03:30;8.40;;;4.35;;
38379;SDS011;38377;47.418;18.882;2022-07-29T06:05:55;5.38;;;4.43;;
38379;SDS011;38377;47.418;18.882;2022-07-29T06:08:21;6.00;;;4.22;;
38379;SDS011;38377;47.418;18.882;2022-07-29T06:10:47;4.90;;;3.85;;
38379;SDS011;38377;47.418;18.882;2022-07-29T06:13:13;6.60;;;4.03;;
38379;SDS011;38377;47.418;18.882;2022-07-29T06:15:40;6.30;;;4.28;;
38379;SDS011;38377;47.418;18.882;2022-07-29T06:18:07;7.18;;;4.30;;
38379;SDS011;38377;47.418;18.882;2022-07-29T06:20:34;5.40;;;4.05;;
38379;SDS011;38377;47.418;18.882;2022-07-29T06:23:00;8.05;;;4.90;;
38379;SDS011;38377;47.418;18.882;2022-07-29T06:25:26;8.75;;;4.00;;
38379;SDS011;38377;47.418;18.882;2022-07-29T06:27:57;6.65;;;4.03;;
38379;SDS011;38377;47.418;18.882;2022-07-29T06:30:23;7.15;;;4.22;;
38379;SDS011;38377;47.418;18.882;2022-07-29T06:32:49;6.10;;;4.18;;
38379;SDS011;38377;47.418;18.882;2022-07-29T06:35:14;5.80;;;4.68;;
38379;SDS011;38377;47.418;18.882;2022-07-29T06:37:40;8.73;;;4.65;;
38379;SDS011;38377;47.418;18.882;2022-07-29T06:40:06;5.22;;;4.75;;
38379;SDS011;38377;47.418;18.882;2022-07-29T06:42:50;7.15;;;5.05;;
38379;SDS011;38377;47.418;18.882;2022-07-29T06:45:16;7.93;;;4.70;;
38379;SDS011;38377;47.418;18.882;2022-07-29T06:47:42;4.82;;;4.20;;
38379;SDS011;38377;47.418;18.882;2022-07-29T06:50:08;6.70;;;4.82;;
38379;SDS011;38377;47.418;18.882;2022-07-29T06:52:37;7.95;;;5.20;;
38379;SDS011;38377;47.418;18.882;2022-07-29T06:55:03;5.05;;;4.50;;
38379;SDS011;38377;47.418;18.882;2022-07-29T06:57:29;8.77;;;4.30;;
38379;SDS011;38377;47.418;18.882;2022-07-29T06:59:56;6.95;;;4.93;;
38379;SDS011;38377;47.418;18.882;2022-07-29T07:02:22;7.72;;;5.10;;
38379;SDS011;38377;47.418;18.882;2022-07-29T07:04:47;8.25;;;4.65;;
38379;SDS011;38377;47.418;18.882;2022-07-29T07:07:13;6.80;;;4.40;;
38379;SDS011;38377;47.418;18.882;2022-07-29T07:09:39;8.68;;;5.35;;
38379;SDS011;38377;47.418;18.882;2022-07-29T07:12:05;8.00;;;4.88;;
38379;SDS011;38377;47.418;18.882;2022-07-29T07:14:31;11.50;;;4.90;;
38379;SDS011;38377;47.418;18.882;2022-07-29T07:16:56;11.68;;;4.65;;
38379;SDS011;38377;47.418;18.882;2022-07-29T07:19:22;8.07;;;4.63;;
38379;SDS011;38377;47.418;18.882;2022-07-29T07:21:48;7.05;;;4.85;;
38379;SDS011;38377;47.418;18.882;2022-07-29T07:24:14;5.28;;;4.50;;
38379;SDS011;38377;47.418;18.882;2022-07-29T07:26:40;10.13;;;5.43;;
38379;SDS011;38377;47.418;18.882;2022-07-29T07:29:05;10.25;;;5.32;;
38379;SDS011;38377;47.418;18.882;2022-07-29T07:31:31;7.22;;;4.70;;
38379;SDS011;38377;47.418;18.882;2022-07-29T07:33:57;7.55;;;4.43;;
38379;SDS011;38377;47.418;18.882;2022-07-29T07:36:23;5.30;;;4.30;;
38379;SDS011;38377;47.418;18.882;2022-07-29T07:38:48;6.95;;;5.20;;
38379;SDS011;38377;47.418;18.882;2022-07-29T07:41:14;6.15;;;4.60;;
38379;SDS011;38377;47.418;18.882;2022-07-29T07:43:40;7.25;;;4.55;;
38379;SDS011;38377;47.418;18.882;2022-07-29T07:46:06;7.97;;;5.30;;
38379;SDS011;38377;47.418;18.882;2022-07-29T07:48:31;5.78;;;5.10;;
38379;SDS011;38377;47.418;18.882;2022-07-29T07:50:59;6.20;;;4.30;;
38379;SDS011;38377;47.418;18.882;2022-07-29T07:53:25;5.55;;;5.05;;
38379;SDS011;38377;47.418;18.882;2022-07-29T07:55:51;6.57;;;5.63;;
38379;SDS011;38377;47.418;18.882;2022-07-29T07:58:17;10.68;;;5.30;;
38379;SDS011;38377;47.418;18.882;2022-07-29T08:00:43;4.93;;;4.28;;
38379;SDS011;38377;47.418;18.882;2022-07-29T08:03:08;6.63;;;4.80;;
38379;SDS011;38377;47.418;18.882;2022-07-29T08:05:37;6.88;;;5.13;;
38379;SDS011;38377;47.418;18.882;2022-07-29T08:08:03;8.52;;;5.60;;
38379;SDS011;38377;47.418;18.882;2022-07-29T08:10:29;9.48;;;5.30;;
38379;SDS011;38377;47.418;18.882;2022-07-29T08:13:13;8.95;;;7.47;;
38379;SDS011;38377;47.418;18.882;2022-07-29T08:15:39;8.35;;;6.38;;
38379;SDS011;38377;47.418;18.882;2022-07-29T08:18:06;10.90;;;6.90;;
38379;SDS011;38377;47.418;18.882;2022-07-29T08:20:32;6.38;;;4.70;;
38379;SDS011;38377;47.418;18.882;2022-07-29T08:23:00;6.32;;;4.68;;
38379;SDS011;38377;47.418;18.882;2022-07-29T08:25:26;7.72;;;4.80;;
38379;SDS011;38377;47.418;18.882;2022-07-29T08:27:52;6.57;;;4.72;;
38379;SDS011;38377;47.418;18.882;2022-07-29T08:30:18;9.63;;;4.88;;
38379;SDS011;38377;47.418;18.882;2022-07-29T08:32:43;8.13;;;5.13;;
38379;SDS011;38377;47.418;18.882;2022-07-29T08:35:09;7.22;;;5.68;;
38379;SDS011;38377;47.418;18.882;2022-07-29T08:37:35;8.55;;;5.32;;
38379;SDS011;38377;47.418;18.882;2022-07-29T08:40:00;10.05;;;6.07;;
38379;SDS011;38377;47.418;18.882;2022-07-29T08:42:26;8.80;;;5.20;;
38379;SDS011;38377;47.418;18.882;2022-07-29T08:44:53;7.10;;;4.97;;
38379;SDS011;38377;47.418;18.882;2022-07-29T08:47:19;8.02;;;4.85;;
38379;SDS011;38377;47.418;18.882;2022-07-29T08:49:45;12.02;;;5.28;;
38379;SDS011;38377;47.418;18.882;2022-07-29T08:52:13;8.95;;;5.22;;
38379;SDS011;38377;47.418;18.882;2022-07-29T08:54:39;7.60;;;4.70;;
38379;SDS011;38377;47.418;18.882;2022-07-29T08:57:09;9.13;;;5.97;;
38379;SDS011;38377;47.418;18.882;2022-07-29T08:59:37;7.57;;;4.72;;
38379;SDS011;38377;47.418;18.882;2022-07-29T09:02:06;8.63;;;5.07;;
38379;SDS011;38377;47.418;18.882;2022-07-29T09:04:37;5.72;;;5.20;;
38379;SDS011;38377;47.418;18.882;2022-07-29T09:07:03;6.70;;;5.22;;
38379;SDS011;38377;47.418;18.882;2022-07-29T09:09:30;11.43;;;6.15;;
38379;SDS011;38377;47.418;18.882;2022-07-29T09:11:58;7.45;;;5.72;;
38379;SDS011;38377;47.418;18.882;2022-07-29T09:14:24;5.65;;;5.15;;
38379;SDS011;38377;47.418;18.882;2022-07-29T09:16:54;9.30;;;6.65;;
38379;SDS011;38377;47.418;18.882;2022-07-29T09:19:29;10.18;;;5.40;;
38379;SDS011;38377;47.418;18.882;2022-07-29T09:21:56;13.85;;;5.38;;
38379;SDS011;38377;47.418;18.882;2022-07-29T09:24:24;8.07;;;7.18;;
38379;SDS011;38377;47.418;18.882;2022-07-29T09:26:52;7.18;;;6.47;;
38379;SDS011;38377;47.418;18.882;2022-07-29T09:29:22;7.25;;;5.65;;
38379;SDS011;38377;47.418;18.882;2022-07-29T09:31:49;9.57;;;5.60;;
38379;SDS011;38377;47.418;18.882;2022-07-29T09:34:20;8.60;;;5.43;;
38379;SDS011;38377;47.418;18.882;2022-07-29T09:36:48;6.47;;;5.57;;
38379;SDS011;38377;47.418;18.882;2022-07-29T09:39:18;8.07;;;5.40;;
38379;SDS011;38377;47.418;18.882;2022-07-29T09:41:55;7.03;;;4.55;;
38379;SDS011;38377;47.418;18.882;2022-07-29T09:44:24;11.48;;;4.63;;
38379;SDS011;38377;47.418;18.882;2022-07-29T09:46:54;8.50;;;3.80;;
38379;SDS011;38377;47.418;18.882;2022-07-29T09:49:30;5.97;;;4.10;;
38379;SDS011;38377;47.418;18.882;2022-07-29T09:52:08;10.00;;;4.88;;
38379;SDS011;38377;47.418;18.882;2022-07-29T09:54:36;8.70;;;4.53;;
38379;SDS011;38377;47.418;18.882;2022-07-29T09:57:03;9.65;;;4.15;;
38379;SDS011;38377;47.418;18.882;2022-07-29T09:59:30;10.38;;;4.40;;
38379;SDS011;38377;47.418;18.882;2022-07-29T10:01:56;7.30;;;3.97;;
38379;SDS011;38377;47.418;18.882;2022-07-29T10:04:22;7.30;;;4.32;;
38379;SDS011;38377;47.418;18.882;2022-07-29T10:09:24;6.63;;;3.88;;
38379;SDS011;38377;47.418;18.882;2022-07-29T10:12:10;5.93;;;3.63;;
38379;SDS011;38377;47.418;18.882;2022-07-29T10:14:41;6.93;;;3.90;;
38379;SDS011;38377;47.418;18.882;2022-07-29T10:17:08;5.80;;;3.33;;
38379;SDS011;38377;47.418;18.882;2022-07-29T10:19:35;5.28;;;3.70;;
38379;SDS011;38377;47.418;18.882;2022-07-29T10:22:03;4.80;;;3.10;;
38379;SDS011;38377;47.418;18.882;2022-07-29T10:24:31;6.43;;;3.78;;
38379;SDS011;38377;47.418;18.882;2022-07-29T10:27:01;7.95;;;3.30;;
38379;SDS011;38377;47.418;18.882;2022-07-29T10:29:29;4.22;;;3.15;;
38379;SDS011;38377;47.418;18.882;2022-07-29T10:43:18;4.38;;;3.58;;
38379;SDS011;38377;47.418;18.882;2022-07-29T10:45:55;15.35;;;5.05;;
38379;SDS011;38377;47.418;18.882;2022-07-29T10:48:23;8.52;;;3.80;;
38379;SDS011;38377;47.418;18.882;2022-07-29T10:50:52;7.72;;;4.10;;
38379;SDS011;38377;47.418;18.882;2022-07-29T10:53:20;7.53;;;4.07;;
38379;SDS011;38377;47.418;18.882;2022-07-29T10:55:50;4.18;;;3.78;;
38379;SDS011;38377;47.418;18.882;2022-07-29T10:58:18;7.18;;;3.90;;
38379;SDS011;38377;47.418;18.882;2022-07-29T11:00:49;5.63;;;4.07;;
38379;SDS011;38377;47.418;18.882;2022-07-29T11:06:11;5.68;;;3.97;;
38379;SDS011;38377;47.418;18.882;2022-07-29T11:08:38;4.40;;;3.70;;
38379;SDS011;38377;47.418;18.882;2022-07-29T11:13:48;7.10;;;3.88;;
38379;SDS011;38377;47.418;18.882;2022-07-29T11:16:16;4.78;;;3.75;;
38379;SDS011;38377;47.418;18.882;2022-07-29T11:21:41;5.22;;;3.47;;
38379;SDS011;38377;47.418;18.882;2022-07-29T11:24:14;4.00;;;3.58;;
38379;SDS011;38377;47.418;18.882;2022-07-29T11:26:42;7.50;;;3.78;;
38379;SDS011;38377;47.418;18.882;2022-07-29T11:31:43;4.20;;;3.78;;
38379;SDS011;38377;47.418;18.882;2022-07-29T11:47:38;7.55;;;3.60;;
38379;SDS011;38377;47.418;18.882;2022-07-29T11:52:57;5.90;;;3.83;;
38379;SDS011;38377;47.418;18.882;2022-07-29T11:55:23;4.95;;;3.65;;
38379;SDS011;38377;47.418;18.882;2022-07-29T11:57:54;5.88;;;3.80;;
38379;SDS011;38377;47.418;18.882;2022-07-29T12:00:31;4.35;;;3.42;;
38379;SDS011;38377;47.418;18.882;2022-07-29T12:03:06;4.28;;;3.70;;
38379;SDS011;38377;47.418;18.882;2022-07-29T12:05:45;5.43;;;3.55;;
38379;SDS011;38377;47.418;18.882;2022-07-29T12:08:21;8.48;;;3.92;;
38379;SDS011;38377;47.418;18.882;2022-07-29T12:10:48;7.32;;;3.90;;
38379;SDS011;38377;47.418;18.882;2022-07-29T12:13:16;4.65;;;3.58;;
38379;SDS011;38377;47.418;18.882;2022-07-29T12:15:51;6.35;;;3.50;;
38379;SDS011;38377;47.418;18.882;2022-07-29T12:18:22;3.97;;;3.45;;
38379;SDS011;38377;47.418;18.882;2022-07-29T12:20:48;4.22;;;3.83;;
38379;SDS011;38377;47.418;18.882;2022-07-29T12:23:21;7.50;;;3.53;;
38379;SDS011;38377;47.418;18.882;2022-07-29T12:25:47;5.75;;;4.05;;
38379;SDS011;38377;47.418;18.882;2022-07-29T12:28:13;7.20;;;4.40;;
38379;SDS011;38377;47.418;18.882;2022-07-29T12:30:47;7.15;;;3.67;;
38379;SDS011;38377;47.418;18.882;2022-07-29T12:35:40;8.20;;;3.58;;
38379;SDS011;38377;47.418;18.882;2022-07-29T12:38:09;4.85;;;4.00;;
38379;SDS011;38377;47.418;18.882;2022-07-29T12:40:36;5.13;;;3.42;;
38379;SDS011;38377;47.418;18.882;2022-07-29T12:43:09;3.88;;;3.47;;
38379;SDS011;38377;47.418;18.882;2022-07-29T12:45:41;5.93;;;3.53;;
38379;SDS011;38377;47.418;18.882;2022-07-29T12:48:09;5.10;;;3.92;;
38379;SDS011;38377;47.418;18.882;2022-07-29T12:50:36;4.18;;;3.20;;
38379;SDS011;38377;47.418;18.882;2022-07-29T12:53:16;4.63;;;3.20;;
38379;SDS011;38377;47.418;18.882;2022-07-29T12:55:49;4.32;;;3.50;;
38379;SDS011;38377;47.418;18.882;2022-07-29T12:58:52;8.77;;;3.60;;
38379;SDS011;38377;47.418;18.882;2022-07-29T13:01:15;6.63;;;3.72;;
38379;SDS011;38377;47.418;18.882;2022-07-29T13:11:39;5.30;;;3.40;;
38379;SDS011;38377;47.418;18.882;2022-07-29T13:14:05;9.43;;;3.88;;
38379;SDS011;38377;47.418;18.882;2022-07-29T13:16:33;3.47;;;3.13;;
38379;SDS011;38377;47.418;18.882;2022-07-29T13:21:34;4.43;;;3.42;;
38379;SDS011;38377;47.418;18.882;2022-07-29T13:24:00;6.35;;;3.38;;
38379;SDS011;38377;47.418;18.882;2022-07-29T13:26:26;3.45;;;2.75;;
38379;SDS011;38377;47.418;18.882;2022-07-29T13:28:52;4.97;;;3.33;;
38379;SDS011;38377;47.418;18.882;2022-07-29T13:31:19;5.75;;;3.30;;
38379;SDS011;38377;47.418;18.882;2022-07-29T13:33:45;5.55;;;3.53;;
38379;SDS011;38377;47.418;18.882;2022-07-29T13:36:11;6.43;;;3.60;;
38379;SDS011;38377;47.418;18.882;2022-07-29T13:38:36;5.47;;;4.00;;
38379;SDS011;38377;47.418;18.882;2022-07-29T13:41:02;3.90;;;3.50;;
38379;SDS011;38377;47.418;18.882;2022-07-29T13:43:28;5.28;;;4.00;;
38379;SDS011;38377;47.418;18.882;2022-07-29T13:45:53;5.40;;;3.70;;
38379;SDS011;38377;47.418;18.882;2022-07-29T13:48:19;4.63;;;3.40;;
38379;SDS011;38377;47.418;18.882;2022-07-29T13:50:45;5.97;;;3.80;;
38379;SDS011;38377;47.418;18.882;2022-07-29T13:53:12;4.22;;;3.78;;
38379;SDS011;38377;47.418;18.882;2022-07-29T13:55:38;5.80;;;3.58;;
38379;SDS011;38377;47.418;18.882;2022-07-29T13:58:04;5.57;;;3.58;;
38379;SDS011;38377;47.418;18.882;2022-07-29T14:00:30;4.32;;;3.70;;
38379;SDS011;38377;47.418;18.882;2022-07-29T14:02:56;5.60;;;3.75;;
38379;SDS011;38377;47.418;18.882;2022-07-29T14:05:22;4.80;;;3.33;;
38379;SDS011;38377;47.418;18.882;2022-07-29T14:07:48;8.02;;;4.15;;
38379;SDS011;38377;47.418;18.882;2022-07-29T14:10:14;3.40;;;3.00;;
38379;SDS011;38377;47.418;18.882;2022-07-29T14:12:39;13.93;;;4.60;;
38379;SDS011;38377;47.418;18.882;2022-07-29T14:15:07;8.30;;;4.90;;
38379;SDS011;38377;47.418;18.882;2022-07-29T14:17:33;4.10;;;3.28;;
38379;SDS011;38377;47.418;18.882;2022-07-29T14:19:59;6.07;;;4.13;;
38379;SDS011;38377;47.418;18.882;2022-07-29T14:22:24;5.57;;;3.92;;
38379;SDS011;38377;47.418;18.882;2022-07-29T14:24:50;5.05;;;3.95;;
38379;SDS011;38377;47.418;18.882;2022-07-29T14:27:16;7.25;;;3.85;;
38379;SDS011;38377;47.418;18.882;2022-07-29T14:29:41;3.95;;;3.65;;
38379;SDS011;38377;47.418;18.882;2022-07-29T14:32:08;6.40;;;3.80;;
38379;SDS011;38377;47.418;18.882;2022-07-29T14:34:35;5.97;;;3.60;;
38379;SDS011;38377;47.418;18.882;2022-07-29T14:37:01;10.73;;;4.05;;
38379;SDS011;38377;47.418;18.882;2022-07-29T14:39:30;4.35;;;3.70;;
38379;SDS011;38377;47.418;18.882;2022-07-29T14:41:56;5.15;;;3.80;;
38379;SDS011;38377;47.418;18.882;2022-07-29T14:44:22;4.90;;;3.80;;
38379;SDS011;38377;47.418;18.882;2022-07-29T14:46:48;4.13;;;3.72;;
38379;SDS011;38377;47.418;18.882;2022-07-29T14:49:14;5.60;;;4.40;;
38379;SDS011;38377;47.418;18.882;2022-07-29T14:51:40;9.63;;;3.92;;
38379;SDS011;38377;47.418;18.882;2022-07-29T14:54:06;4.68;;;4.05;;
38379;SDS011;38377;47.418;18.882;2022-07-29T14:56:32;5.50;;;3.80;;
38379;SDS011;38377;47.418;18.882;2022-07-29T14:58:58;5.63;;;3.67;;
38379;SDS011;38377;47.418;18.882;2022-07-29T15:01:24;3.90;;;3.50;;
38379;SDS011;38377;47.418;18.882;2022-07-29T15:03:50;4.53;;;3.65;;
38379;SDS011;38377;47.418;18.882;2022-07-29T15:06:16;4.00;;;3.60;;
38379;SDS011;38377;47.418;18.882;2022-07-29T15:08:41;6.93;;;4.10;;
38379;SDS011;38377;47.418;18.882;2022-07-29T15:11:07;7.13;;;3.70;;
38379;SDS011;38377;47.418;18.882;2022-07-29T15:13:33;6.95;;;3.78;;
38379;SDS011;38377;47.418;18.882;2022-07-29T15:15:59;10.50;;;4.35;;
38379;SDS011;38377;47.418;18.882;2022-07-29T15:18:25;4.63;;;3.53;;
38379;SDS011;38377;47.418;18.882;2022-07-29T15:20:51;9.27;;;3.15;;
38379;SDS011;38377;47.418;18.882;2022-07-29T15:23:17;5.35;;;3.78;;
38379;SDS011;38377;47.418;18.882;2022-07-29T15:25:43;5.90;;;3.72;;
38379;SDS011;38377;47.418;18.882;2022-07-29T15:28:08;3.70;;;3.40;;
38379;SDS011;38377;47.418;18.882;2022-07-29T15:30:34;4.93;;;3.83;;
38379;SDS011;38377;47.418;18.882;2022-07-29T15:33:05;4.50;;;3.38;;
38379;SDS011;38377;47.418;18.882;2022-07-29T15:35:33;4.22;;;3.50;;
38379;SDS011;38377;47.418;18.882;2022-07-29T15:37:59;4.53;;;3.47;;
38379;SDS011;38377;47.418;18.882;2022-07-29T15:40:24;4.13;;;3.72;;
38379;SDS011;38377;47.418;18.882;2022-07-29T15:42:50;4.90;;;3.90;;
38379;SDS011;38377;47.418;18.882;2022-07-29T15:45:16;7.45;;;3.53;;
38379;SDS011;38377;47.418;18.882;2022-07-29T15:47:42;5.30;;;3.67;;
38379;SDS011;38377;47.418;18.882;2022-07-29T15:50:07;4.63;;;3.22;;
38379;SDS011;38377;47.418;18.882;2022-07-29T15:52:38;5.55;;;3.35;;